createdAt,value
2022-09-03T00:00:00.191Z,1.1
2022-09-03T00:05:00.174Z,1.1
2022-09-03T00:10:00.235Z,1.1
2022-09-03T00:15:00.186Z,1.1
2022-09-03T00:20:00.181Z,1.1
2022-09-03T00:25:00.168Z,1.1
2022-09-03T00:30:00.187Z,1.1
2022-09-03T00:35:00.177Z,1.1
2022-09-03T00:40:00.339Z,1.1
2022-09-03T00:45:00.173Z,1.1
2022-09-03T00:50:00.177Z,1.1
2022-09-03T00:55:00.181Z,1.1
2022-09-03T01:00:00.176Z,1.1
2022-09-03T01:05:00.198Z,1.1
2022-09-03T01:10:00.176Z,1.1
2022-09-03T01:15:00.172Z,1.1
2022-09-03T01:20:01.014Z,1.1
2022-09-03T01:25:00.434Z,1.1
2022-09-03T01:30:00.189Z,1.1
2022-09-03T01:35:00.183Z,1.1
2022-09-03T01:40:00.366Z,1.1
2022-09-03T01:45:00.171Z,1.1
2022-09-03T01:50:00.175Z,1.1
2022-09-03T01:55:00.166Z,1.1
2022-09-03T02:00:00.186Z,1.1
2022-09-03T02:05:00.311Z,1.1
2022-09-03T02:10:00.323Z,1.1
2022-09-03T02:15:00.159Z,1.1
2022-09-03T02:20:00.160Z,1.1
2022-09-03T02:25:00.182Z,1.1
2022-09-03T02:30:00.205Z,1.1
2022-09-03T02:35:00.165Z,1.1
2022-09-03T02:40:00.269Z,1.1
2022-09-03T02:45:00.169Z,1.1
2022-09-03T02:50:00.207Z,1.1
2022-09-03T02:55:00.190Z,1.1
2022-09-03T03:00:00.187Z,1.1
2022-09-03T03:05:00.154Z,1.1
2022-09-03T03:10:00.169Z,1.1
2022-09-03T03:15:00.159Z,1.1
2022-09-03T03:20:00.163Z,1.1
2022-09-03T03:25:00.197Z,1.1
2022-09-03T03:30:00.219Z,1.1
2022-09-03T03:35:00.217Z,1.1
2022-09-03T03:40:00.299Z,1.1
2022-09-03T03:45:00.181Z,1.1
2022-09-03T03:50:00.199Z,1.1
2022-09-03T03:55:00.188Z,1.1
2022-09-03T04:00:00.370Z,1.1
2022-09-03T04:05:00.267Z,1.1
2022-09-03T04:10:00.269Z,1.1
2022-09-03T04:15:00.273Z,1.1
2022-09-03T04:20:00.171Z,1.1
2022-09-03T04:25:00.861Z,1.7
2022-09-03T04:30:00.155Z,3.2
2022-09-03T04:35:00.217Z,5.1
2022-09-03T04:40:00.348Z,10.1
2022-09-03T04:45:00.156Z,18.1
2022-09-03T04:50:00.166Z,34.5
2022-09-03T04:55:00.177Z,52.4
2022-09-03T05:00:00.156Z,62.7
2022-09-03T05:05:00.185Z,61.9
2022-09-03T05:10:00.183Z,69
2022-09-03T05:15:00.160Z,103.5
2022-09-03T05:20:00.195Z,148.2
2022-09-03T05:25:00.158Z,118.1
2022-09-03T05:30:00.176Z,151.8
2022-09-03T05:35:00.151Z,230.7
2022-09-03T05:40:00.276Z,276.1
2022-09-03T05:45:00.158Z,318.7
2022-09-03T05:50:00.170Z,467.2
2022-09-03T05:55:00.162Z,579.4
2022-09-03T06:00:00.155Z,781.4
2022-09-03T06:05:00.168Z,870.2
2022-09-03T06:10:00.165Z,1079.1
2022-09-03T06:15:00.165Z,1260.7
2022-09-03T06:20:00.158Z,1105.3
2022-09-03T06:25:00.150Z,1028.7
2022-09-03T06:30:00.179Z,1079.1
2022-09-03T06:35:00.448Z,1105.3
2022-09-03T06:40:00.303Z,980.7
2022-09-03T06:45:00.185Z,1053.6
2022-09-03T06:50:00.188Z,1403.9
2022-09-03T06:55:00.156Z,1699.9
2022-09-03T07:00:00.189Z,1720.4
2022-09-03T07:05:00.159Z,2034
2022-09-03T07:10:00.179Z,1938.9
2022-09-03T07:15:00.157Z,1962.2
2022-09-03T07:20:00.174Z,1699.9
2022-09-03T07:25:00.169Z,1437.9
2022-09-03T07:30:00.156Z,1783.3
2022-09-03T07:45:00.151Z,1620.5
2022-09-03T07:50:00.151Z,1659.7
2022-09-03T07:55:00.244Z,2583.5
2022-09-03T08:00:00.162Z,4320.5
2022-09-03T08:05:00.226Z,2265.1
2022-09-03T08:10:00.176Z,2376
2022-09-03T08:15:00.177Z,2522.4
2022-09-03T08:25:00.312Z,1526.4
2022-09-03T08:30:00.184Z,2809
2022-09-03T08:35:00.690Z,2677.9
2022-09-03T08:40:00.563Z,3483.7
2022-09-03T08:45:00.154Z,3128.2
2022-09-03T08:50:00.170Z,3973.5
2022-09-03T08:55:00.174Z,3483.7
2022-09-03T09:00:00.209Z,4754.3
2022-09-03T09:05:00.160Z,2404.6
2022-09-03T09:10:00.172Z,4168.3
2022-09-03T09:15:00.166Z,4320.5
2022-09-03T09:20:00.163Z,3568
2022-09-03T09:25:00.170Z,4532.1
2022-09-03T09:30:00.170Z,3442.3
2022-09-03T09:35:00.210Z,3401.4
2022-09-03T09:40:00.291Z,2877.1
2022-09-03T09:45:00.188Z,4532.1
2022-09-03T09:50:00.183Z,6566.3
2022-09-03T09:55:00.166Z,5422.7
2022-09-03T10:00:00.193Z,4987.1
2022-09-03T10:05:00.161Z,2911.7
2022-09-03T10:10:00.201Z,2009.8
2022-09-03T10:15:00.260Z,1028.7
2022-09-03T10:20:06.486Z,139.6
2022-09-03T10:30:00.187Z,390.5
2022-09-03T10:35:00.190Z,395.2
2022-09-03T10:40:00.287Z,552.4
2022-09-03T10:45:00.173Z,923.7
2022-09-03T10:50:00.170Z,1826.4
2022-09-03T10:55:00.166Z,2265.1
2022-09-03T11:00:00.192Z,5487.9
2022-09-03T11:05:00.163Z,4754.3
2022-09-03T11:10:00.160Z,4372.4
2022-09-03T11:15:00.168Z,4869.3
2022-09-03T11:20:02.043Z,5826.2
2022-09-03T11:25:00.223Z,4869.3
2022-09-03T11:30:00.239Z,5896.2
2022-09-03T11:35:00.197Z,5756.7
2022-09-03T11:40:00.315Z,5553.9
2022-09-03T11:45:00.180Z,7312.1
2022-09-03T11:50:00.172Z,5487.9
2022-09-03T11:55:00.170Z,4987.1
2022-09-03T12:00:00.834Z,6725.2
2022-09-03T12:05:00.575Z,6725.2
2022-09-03T12:10:00.213Z,4118.8
2022-09-03T12:15:00.165Z,4987.1
2022-09-03T12:20:00.186Z,4642
2022-09-03T12:25:00.198Z,3879.6
2022-09-03T12:30:00.445Z,4987.1
2022-09-03T12:35:00.159Z,6970.7
2022-09-03T12:40:08.723Z,5896.2
2022-09-03T12:45:00.187Z,5231.6
2022-09-03T12:50:00.169Z,5294.6
2022-09-03T12:55:00.177Z,4269.1
2022-09-03T13:00:00.191Z,3973.5
2022-09-03T13:05:00.189Z,4425
2022-09-03T13:10:00.167Z,5553.9
2022-09-03T13:15:00.167Z,6259.4
2022-09-03T13:20:00.209Z,5358.2
2022-09-03T13:25:00.166Z,5107.8
2022-09-03T13:30:00.173Z,4118.8
2022-09-03T13:35:00.162Z,5358.2
2022-09-03T13:40:00.264Z,5826.2
2022-09-03T13:45:00.772Z,6334.7
2022-09-03T13:50:01.503Z,6970.7
2022-09-03T13:55:00.146Z,5231.6
2022-09-03T14:00:00.184Z,2522.4
2022-09-03T14:05:00.174Z,2433.5
2022-09-03T14:10:00.195Z,2347.8
2022-09-03T14:15:00.224Z,1985.8
2022-09-03T14:20:00.160Z,1437.9
2022-09-03T14:25:00.165Z,1962.2
2022-09-03T14:30:00.167Z,1720.4
2022-09-03T14:35:00.168Z,1741
2022-09-03T14:40:00.255Z,1699.9
2022-09-03T14:45:00.165Z,1699.9
2022-09-03T14:50:00.190Z,1640
2022-09-03T14:55:00.186Z,1659.7
2022-09-03T15:00:00.160Z,1679.7
2022-09-03T15:05:00.169Z,1783.3
2022-09-03T15:10:00.165Z,1679.7
2022-09-03T15:15:00.171Z,1659.7
2022-09-03T15:20:00.216Z,1741
2022-09-03T15:25:00.162Z,1659.7
2022-09-03T15:30:00.373Z,1699.9
2022-09-03T15:35:00.161Z,1741
2022-09-03T15:40:00.410Z,1804.7
2022-09-03T15:45:00.165Z,1804.7
2022-09-03T15:50:00.169Z,1826.4
2022-09-03T15:55:00.162Z,1741
2022-09-03T16:00:00.197Z,1762
2022-09-03T16:05:00.159Z,1848.4
2022-09-03T16:10:23.289Z,1659.7
2022-09-03T16:15:00.162Z,1741
2022-09-03T16:20:00.186Z,1804.7
2022-09-03T16:25:00.166Z,1563.4
2022-09-03T16:30:00.206Z,1620.5
2022-09-03T16:35:00.170Z,1187.5
2022-09-03T16:40:00.366Z,1306.7
2022-09-03T16:45:00.172Z,1620.5
2022-09-03T16:50:00.163Z,1322.4
2022-09-03T16:55:00.165Z,1322.4
2022-09-03T17:00:00.195Z,1230.8
2022-09-03T17:05:00.203Z,992.5
2022-09-03T17:10:00.185Z,957.5
2022-09-03T17:15:00.168Z,1105.3
2022-09-03T17:20:00.183Z,1028.7
2022-09-03T17:25:00.189Z,685.1
2022-09-03T17:30:00.189Z,545.8
2022-09-03T17:35:00.198Z,496
2022-09-03T17:40:00.293Z,440.1
2022-09-03T17:45:00.176Z,350.6
2022-09-03T17:50:00.179Z,269.5
2022-09-03T17:55:00.172Z,183.8
2022-09-03T18:00:00.180Z,128.4
2022-09-03T18:05:00.164Z,75.9
2022-09-03T18:10:00.191Z,42.2
2022-09-03T18:15:00.170Z,19
2022-09-03T18:20:00.176Z,7.5
2022-09-03T18:25:00.172Z,2.9
2022-09-03T18:30:00.169Z,1.2
2022-09-03T18:35:00.171Z,1.1
2022-09-03T18:40:00.314Z,1.1
2022-09-03T18:45:18.712Z,1.1
2022-09-03T18:50:00.257Z,1.1
2022-09-03T18:55:08.767Z,1.1
2022-09-03T19:00:00.932Z,1.1
2022-09-03T19:05:00.215Z,1.1
2022-09-03T19:10:00.254Z,1.1
2022-09-03T19:15:00.181Z,1.1
2022-09-03T19:20:00.177Z,1.1
2022-09-03T19:25:00.166Z,1.1
2022-09-03T19:30:00.385Z,1.1
2022-09-03T19:35:00.185Z,1.1
2022-09-03T19:40:00.314Z,1.1
2022-09-03T19:45:00.174Z,1.1
2022-09-03T19:50:00.172Z,1.1
2022-09-03T19:55:00.173Z,1.1
2022-09-03T20:00:00.171Z,1.1
2022-09-03T20:05:00.171Z,1.1
2022-09-03T20:10:00.171Z,1.1
2022-09-03T20:15:00.190Z,1.1
2022-09-03T20:20:00.186Z,1.1
2022-09-03T20:25:00.308Z,1.1
2022-09-03T20:30:00.163Z,1.1
2022-09-03T20:35:00.167Z,1.1
2022-09-03T20:40:00.285Z,1.1
2022-09-03T20:45:00.278Z,1.1
2022-09-03T20:50:00.176Z,1.1
2022-09-03T20:55:00.195Z,1.1
2022-09-03T21:00:00.222Z,1.1
2022-09-03T21:05:00.167Z,1.1
2022-09-03T21:10:00.217Z,1.1
2022-09-03T21:15:00.183Z,1.1
2022-09-03T21:20:00.176Z,1.1
2022-09-03T21:25:00.178Z,1.1
2022-09-03T21:30:00.208Z,1.1
2022-09-03T21:35:00.187Z,1.1
2022-09-03T21:40:00.327Z,1.1
2022-09-03T21:45:00.176Z,1.1
2022-09-03T21:50:00.189Z,1.1
2022-09-03T21:55:00.193Z,1.1
2022-09-03T22:00:00.174Z,1.1
2022-09-03T22:05:00.187Z,1.1
2022-09-03T22:10:00.190Z,1.1
2022-09-03T22:15:00.168Z,1.1
2022-09-03T22:20:00.185Z,1.1
2022-09-03T22:25:00.177Z,1.1
2022-09-03T22:30:00.167Z,1.1
2022-09-03T22:35:00.206Z,1.1
2022-09-03T22:40:00.313Z,1.1
2022-09-03T22:45:00.185Z,1.1
2022-09-03T22:50:00.177Z,1.1
2022-09-03T22:55:00.189Z,1.1
2022-09-03T23:00:00.181Z,1.1
2022-09-03T23:05:00.183Z,1.1
2022-09-03T23:10:00.181Z,1.1
2022-09-03T23:15:00.170Z,1.1
2022-09-03T23:20:00.295Z,1.1
2022-09-03T23:25:00.184Z,1.1
2022-09-03T23:30:00.198Z,1.1
2022-09-03T23:35:00.177Z,1.1
2022-09-03T23:40:00.341Z,1.1
2022-09-03T23:45:00.251Z,1.1
2022-09-03T23:50:00.175Z,1.1
2022-09-03T23:55:00.166Z,1.1
